Time;durP1;ratioP1;P1;durP2;ratioP2;P2;SDS_P1;SDS_P2;PMS_P1;PMS_P2;Temp;Humidity;BMP_temperature;BMP_pressure;BME280_temperature;BME280_humidity;BME280_pressure;Samples;Min_cycle;Max_cycle;Signal;HPM_P1;HPM_P2
2021/03/29 00:00:33;;;;;;;5.97;2.28;;;13.60;67.10;;;;;;4987810;28;20452;-64
2021/03/29 00:03:00;;;;;;;4.05;2.13;;;13.60;67.10;;;;;;4986991;28;20120;-65
2021/03/29 00:05:31;;;;;;;3.05;1.92;;;13.50;67.00;;;;;;4987510;28;20754;-65
2021/03/29 00:08:09;;;;;;;4.65;2.88;;;13.60;67.20;;;;;;4986599;28;20401;-65
2021/03/29 00:10:37;;;;;;;3.33;2.13;;;13.50;67.10;;;;;;4987681;28;20489;-66
2021/03/29 00:13:04;;;;;;;4.28;2.03;;;13.50;67.10;;;;;;4986124;28;20054;-65
2021/03/29 00:15:35;;;;;;;6.40;2.30;;;13.50;67.10;;;;;;4987409;28;20038;-65
2021/03/29 00:18:04;;;;;;;6.13;1.92;;;13.50;67.20;;;;;;4986239;28;20130;-67
2021/03/29 00:20:32;;;;;;;5.55;2.78;;;13.50;67.20;;;;;;4986160;28;20077;-63
2021/03/29 00:22:59;;;;;;;3.92;2.25;;;13.50;67.20;;;;;;4987697;28;20046;-66
2021/03/29 00:25:28;;;;;;;2.50;2.13;;;13.40;67.00;;;;;;4969428;28;20053;-66
2021/03/29 00:27:54;;;;;;;6.25;2.35;;;13.50;67.20;;;;;;4969426;28;20305;-66
2021/03/29 00:30:27;;;;;;;2.85;1.85;;;13.40;67.10;;;;;;4968827;28;20062;-66
2021/03/29 00:32:54;;;;;;;5.07;2.58;;;13.50;67.30;;;;;;4985146;28;20276;-63
2021/03/29 00:35:22;;;;;;;7.60;2.28;;;13.40;67.10;;;;;;4986538;28;20094;-66
2021/03/29 00:37:51;;;;;;;5.57;2.42;;;13.40;67.20;;;;;;4987332;28;20046;-65
2021/03/29 00:40:18;;;;;;;4.72;2.40;;;13.40;67.20;;;;;;4986986;28;20122;-63
2021/03/29 00:42:48;;;;;;;4.18;2.35;;;13.40;67.20;;;;;;4987664;28;20049;-64
2021/03/29 00:45:18;;;;;;;5.20;2.25;;;13.40;67.30;;;;;;4986986;28;20385;-62
2021/03/29 00:47:45;;;;;;;4.47;1.63;;;13.40;67.20;;;;;;4986694;28;20505;-63
2021/03/29 00:50:14;;;;;;;3.60;2.53;;;13.40;67.30;;;;;;4986885;28;20053;-65
2021/03/29 00:52:43;;;;;;;6.45;2.42;;;13.40;67.30;;;;;;4969093;28;20042;-66
2021/03/29 00:55:10;;;;;;;6.85;2.58;;;13.40;67.30;;;;;;4986530;28;20632;-66
2021/03/29 00:57:40;;;;;;;4.88;2.17;;;13.40;67.30;;;;;;4985359;28;20042;-65
2021/03/29 01:00:16;;;;;;;8.82;2.70;;;13.40;67.40;;;;;;4984697;28;20065;-67
2021/03/29 01:02:43;;;;;;;4.15;2.38;;;13.40;67.40;;;;;;4968632;28;20105;-67
2021/03/29 01:05:15;;;;;;;4.03;1.67;;;13.40;67.40;;;;;;4984258;28;20038;-62
2021/03/29 01:07:45;;;;;;;3.08;2.30;;;13.30;67.30;;;;;;4984004;28;20706;-64
2021/03/29 01:10:13;;;;;;;3.55;2.15;;;13.40;67.50;;;;;;4984434;28;20078;-61
2021/03/29 01:12:40;;;;;;;3.22;1.58;;;13.30;67.30;;;;;;4968854;28;20093;-64
2021/03/29 01:15:11;;;;;;;8.27;2.40;;;13.30;67.30;;;;;;4986858;28;20389;-65
2021/03/29 01:17:40;;;;;;;6.03;2.08;;;13.30;67.30;;;;;;4985851;28;20034;-66
2021/03/29 01:20:17;;;;;;;3.22;1.95;;;13.30;67.40;;;;;;4984899;28;20045;-65
2021/03/29 01:22:47;;;;;;;4.38;2.00;;;13.30;67.40;;;;;;4968790;28;20397;-67
2021/03/29 01:25:23;;;;;;;4.00;2.13;;;13.30;67.40;;;;;;4986141;28;20035;-66
2021/03/29 01:28:06;;;;;;;5.97;2.00;;;13.30;67.40;;;;;;4984870;28;20121;-66
2021/03/29 01:30:43;;;;;;;4.60;2.25;;;13.30;67.50;;;;;;4981749;28;20035;-65
2021/03/29 01:33:10;;;;;;;5.93;2.17;;;13.30;67.50;;;;;;4959590;28;20093;-75
2021/03/29 01:35:45;;;;;;;5.70;2.22;;;13.30;67.50;;;;;;4969298;28;20119;-73
2021/03/29 01:38:16;;;;;;;6.82;2.63;;;13.30;67.60;;;;;;4968246;28;20043;-72
2021/03/29 01:40:43;;;;;;;4.55;2.15;;;13.30;67.50;;;;;;4968309;28;20043;-76
2021/03/29 01:43:12;;;;;;;3.28;2.10;;;13.30;67.60;;;;;;4967013;28;20093;-75
2021/03/29 01:45:40;;;;;;;4.55;1.98;;;13.20;67.40;;;;;;4946949;23;20051;-79
2021/03/29 01:48:08;;;;;;;6.60;2.25;;;13.20;67.50;;;;;;4977023;28;20525;-81
2021/03/29 01:50:37;;;;;;;5.53;2.35;;;13.20;67.50;;;;;;4979059;28;20191;-80
2021/03/29 01:53:05;;;;;;;3.75;1.92;;;13.20;67.50;;;;;;4996248;28;20141;-82
2021/03/29 01:55:32;;;;;;;6.15;2.42;;;13.20;67.60;;;;;;4996825;28;20045;-80
2021/03/29 01:57:59;;;;;;;3.10;1.88;;;13.20;67.60;;;;;;4980214;28;20034;-80
2021/03/29 02:00:43;;;;;;;5.93;2.40;;;13.20;67.60;;;;;;4996718;28;20338;-80
2021/03/29 02:03:11;;;;;;;4.45;1.60;;;13.20;67.60;;;;;;4980040;28;20377;-84
2021/03/29 02:05:39;;;;;;;5.18;2.38;;;13.20;67.60;;;;;;4980459;28;20042;-82
2021/03/29 02:08:06;;;;;;;3.97;1.73;;;13.10;67.50;;;;;;5028845;28;20437;-82
2021/03/29 02:10:35;;;;;;;3.40;2.00;;;13.10;67.50;;;;;;5014041;28;20082;-81
2021/03/29 02:13:10;;;;;;;6.57;2.42;;;13.20;67.60;;;;;;4996174;28;20053;-81
2021/03/29 02:15:36;;;;;;;5.40;2.53;;;13.10;67.50;;;;;;5014133;28;20056;-80
2021/03/29 02:18:11;;;;;;;6.80;2.42;;;13.10;67.50;;;;;;4995984;28;20037;-80
2021/03/29 02:20:38;;;;;;;2.55;1.95;;;13.10;67.60;;;;;;4979804;28;20111;-80
2021/03/29 02:23:08;;;;;;;3.50;2.08;;;13.10;67.50;;;;;;4996542;28;20037;-79
2021/03/29 02:25:35;;;;;;;8.23;2.47;;;13.10;67.60;;;;;;5013837;28;20050;-79
2021/03/29 02:28:03;;;;;;;3.55;2.03;;;13.10;67.60;;;;;;5013892;28;20316;-79
2021/03/29 02:30:36;;;;;;;6.00;2.05;;;13.10;67.60;;;;;;5013862;28;20363;-80
2021/03/29 02:33:05;;;;;;;4.57;1.92;;;13.10;67.70;;;;;;4995427;28;20091;-83
2021/03/29 02:35:32;;;;;;;4.88;2.08;;;13.10;67.70;;;;;;4979667;28;20038;-78
2021/03/29 02:38:02;;;;;;;3.55;2.03;;;13.10;67.70;;;;;;4996268;28;20353;-79
2021/03/29 02:40:29;;;;;;;5.60;1.90;;;13.10;67.80;;;;;;4996119;28;20108;-78
2021/03/29 02:42:57;;;;;;;4.68;2.00;;;13.00;67.50;;;;;;4979415;28;20030;-81
2021/03/29 02:45:31;;;;;;;4.80;2.05;;;13.00;67.60;;;;;;5013694;28;20048;-79
2021/03/29 02:48:03;;;;;;;5.38;2.15;;;13.00;67.60;;;;;;4995103;28;20335;-80
2021/03/29 02:50:31;;;;;;;4.30;1.88;;;13.00;67.60;;;;;;4995230;28;20448;-79
2021/03/29 02:52:59;;;;;;;2.63;1.77;;;13.00;67.60;;;;;;4995643;28;20038;-80
2021/03/29 02:55:27;;;;;;;4.07;1.65;;;13.00;67.60;;;;;;4995447;28;20038;-80
2021/03/29 02:57:57;;;;;;;4.10;1.88;;;13.00;67.70;;;;;;4979474;28;20205;-80
2021/03/29 03:00:25;;;;;;;3.90;2.05;;;13.00;67.70;;;;;;4995575;28;20125;-80
2021/03/29 03:02:55;;;;;;;5.60;2.03;;;13.00;67.70;;;;;;5013379;28;20049;-80
2021/03/29 03:05:26;;;;;;;3.90;2.03;;;13.00;67.80;;;;;;5013722;28;20128;-83
2021/03/29 03:07:52;;;;;;;5.63;2.35;;;12.90;67.60;;;;;;4995850;28;20069;-82
2021/03/29 03:10:19;;;;;;;5.60;2.10;;;12.90;67.60;;;;;;5013501;28;20045;-82
2021/03/29 03:12:47;;;;;;;7.57;2.03;;;13.00;67.90;;;;;;4994910;28;20067;-84
2021/03/29 03:15:15;;;;;;;5.78;1.55;;;12.90;67.70;;;;;;4980111;28;20034;-81
2021/03/29 03:17:41;;;;;;;3.15;2.10;;;12.90;67.70;;;;;;4996077;28;20081;-81
2021/03/29 03:20:12;;;;;;;3.30;1.98;;;12.90;67.70;;;;;;4995706;28;20524;-82
2021/03/29 03:22:59;;;;;;;3.45;1.88;;;12.90;67.80;;;;;;4996000;28;20484;-85
2021/03/29 03:25:28;;;;;;;3.25;1.70;;;12.90;67.80;;;;;;4995688;28;20065;-81
2021/03/29 03:27:57;;;;;;;4.63;2.17;;;12.80;67.60;;;;;;5013558;28;20526;-83
2021/03/29 03:30:28;;;;;;;4.88;2.05;;;12.80;67.70;;;;;;4995712;28;20034;-80
2021/03/29 03:32:55;;;;;;;3.05;1.77;;;12.80;67.70;;;;;;4996277;28;20077;-83
2021/03/29 03:35:23;;;;;;;4.50;2.25;;;12.80;67.70;;;;;;5013744;28;20038;-82
2021/03/29 03:38:12;;;;;;;5.03;1.92;;;12.80;67.70;;;;;;5003573;28;20060;-84
2021/03/29 03:40:43;;;;;;;2.88;1.90;;;12.80;67.80;;;;;;5007937;28;20163;-83
2021/03/29 03:43:11;;;;;;;2.50;1.77;;;12.80;67.80;;;;;;5020424;28;20076;-85
2021/03/29 03:45:51;;;;;;;4.63;1.77;;;12.70;67.70;;;;;;5021761;28;20468;-84
2021/03/29 03:48:18;;;;;;;4.57;2.05;;;12.70;67.70;;;;;;4980834;28;20060;-85
2021/03/29 03:50:49;;;;;;;4.63;2.00;;;12.70;67.70;;;;;;5014104;28;20092;-81
2021/03/29 03:53:16;;;;;;;3.53;1.92;;;12.70;67.80;;;;;;4994860;28;20109;-83
2021/03/29 03:55:43;;;;;;;3.55;1.42;;;12.70;67.80;;;;;;4995032;28;20041;-80
2021/03/29 03:58:13;;;;;;;4.20;1.83;;;12.70;67.80;;;;;;4978079;28;20125;-84
2021/03/29 04:00:39;;;;;;;6.30;2.25;;;12.70;67.80;;;;;;4994460;28;20420;-85
2021/03/29 04:03:05;;;;;;;4.00;1.63;;;12.60;67.70;;;;;;4994928;28;20096;-84
2021/03/29 04:05:31;;;;;;;3.50;1.95;;;12.60;67.70;;;;;;5012516;28;20526;-81
2021/03/29 04:07:59;;;;;;;6.07;2.33;;;12.60;67.80;;;;;;4994045;28;20104;-81
2021/03/29 04:11:10;;;;;;;3.63;1.95;;;12.60;68.30;;;;;;4994472;28;20261;-80
2021/03/29 04:13:15;;;;;;;8.10;2.25;;;12.70;68.00;;;;;;4994455;28;20060;-81
2021/03/29 04:15:41;;;;;;;4.72;2.28;;;12.60;67.80;;;;;;4979046;28;20038;-79
2021/03/29 04:18:08;;;;;;;4.90;1.95;;;12.60;67.80;;;;;;4994478;28;20508;-81
2021/03/29 04:20:34;;;;;;;6.88;2.22;;;12.50;67.70;;;;;;4994189;28;20123;-80
2021/03/29 04:23:00;;;;;;;5.13;2.15;;;12.60;67.90;;;;;;4994124;28;20462;-80
2021/03/29 04:25:26;;;;;;;6.88;2.42;;;12.50;67.70;;;;;;4995257;28;20481;-82
2021/03/29 04:27:53;;;;;;;3.08;1.40;;;12.50;67.80;;;;;;4994771;28;20042;-82
2021/03/29 04:30:19;;;;;;;6.68;1.90;;;12.50;67.80;;;;;;4994663;28;20049;-82
2021/03/29 04:32:47;;;;;;;2.15;1.70;;;12.50;67.80;;;;;;4994133;28;20125;-82
2021/03/29 04:35:14;;;;;;;5.22;2.17;;;12.50;67.90;;;;;;5011652;28;20600;-82
2021/03/29 04:37:41;;;;;;;4.80;2.25;;;12.50;67.90;;;;;;4994143;28;20034;-82
2021/03/29 04:40:08;;;;;;;4.38;1.90;;;12.50;67.90;;;;;;4993897;28;20124;-86
2021/03/29 04:42:34;;;;;;;6.40;2.25;;;12.40;67.80;;;;;;4993862;28;20038;-82
2021/03/29 04:45:00;;;;;;;5.28;2.30;;;12.50;68.00;;;;;;5011250;28;20380;-82
2021/03/29 04:47:26;;;;;;;6.05;2.00;;;12.40;67.80;;;;;;5006747;28;20292;-82
2021/03/29 04:49:52;;;;;;;3.55;1.95;;;12.40;67.90;;;;;;4988904;28;20153;-81
2021/03/29 04:52:18;;;;;;;2.35;1.90;;;12.40;67.90;;;;;;4971141;28;20053;-80
2021/03/29 04:54:44;;;;;;;3.63;1.92;;;12.40;67.90;;;;;;4988942;28;20133;-81
2021/03/29 04:57:10;;;;;;;4.50;2.03;;;12.40;67.90;;;;;;4972384;28;20042;-81
2021/03/29 04:59:36;;;;;;;2.95;1.60;;;12.40;68.00;;;;;;4993526;28;20543;-86
2021/03/29 05:02:02;;;;;;;4.80;2.40;;;12.50;68.10;;;;;;4975404;28;20224;-82
2021/03/29 05:04:28;;;;;;;4.85;2.30;;;12.40;68.50;;;;;;4986236;28;20050;-82
2021/03/29 05:06:54;;;;;;;2.50;1.73;;;12.40;68.00;;;;;;4987356;28;20065;-80
2021/03/29 05:09:20;;;;;;;4.35;1.70;;;12.40;68.00;;;;;;4984752;28;20452;-81
2021/03/29 05:11:54;;;;;;;5.50;1.98;;;12.40;68.00;;;;;;4988942;28;20049;-85
2021/03/29 05:14:20;;;;;;;4.45;2.35;;;12.40;68.00;;;;;;4970081;28;20425;-79
2021/03/29 05:16:47;;;;;;;2.88;1.60;;;12.40;68.00;;;;;;4969897;28;20073;-80
2021/03/29 05:19:14;;;;;;;5.20;2.33;;;12.40;68.00;;;;;;5001216;28;20038;-82
2021/03/29 05:21:40;;;;;;;4.20;2.03;;;12.40;68.00;;;;;;4989571;28;20045;-82
2021/03/29 05:24:07;;;;;;;4.40;2.45;;;12.40;68.10;;;;;;5006814;28;20088;-80
2021/03/29 05:26:33;;;;;;;4.20;1.67;;;12.40;68.10;;;;;;4989229;28;20411;-83
2021/03/29 05:28:59;;;;;;;2.80;1.88;;;12.40;68.10;;;;;;4972868;28;20072;-81
2021/03/29 05:31:26;;;;;;;2.45;1.63;;;12.40;68.10;;;;;;4988797;28;20408;-80
2021/03/29 05:33:52;;;;;;;7.03;2.13;;;12.40;68.20;;;;;;5006495;28;20060;-81
2021/03/29 05:36:18;;;;;;;3.10;1.95;;;12.40;68.10;;;;;;4973254;28;20053;-81
2021/03/29 05:38:45;;;;;;;3.85;2.05;;;12.40;68.20;;;;;;5006721;28;20407;-82
2021/03/29 05:41:13;;;;;;;4.70;2.20;;;12.40;68.20;;;;;;5007566;28;20038;-83
2021/03/29 05:43:41;;;;;;;4.95;2.15;;;12.40;68.20;;;;;;4971861;28;20484;-82
2021/03/29 05:46:07;;;;;;;4.60;2.13;;;12.40;68.20;;;;;;5005527;28;20045;-82
2021/03/29 05:48:35;;;;;;;2.80;2.08;;;12.40;68.30;;;;;;4956275;28;20082;-81
2021/03/29 05:51:07;;;;;;;3.33;1.88;;;12.30;68.60;;;;;;4972069;28;20057;-80
2021/03/29 05:53:36;;;;;;;4.97;2.58;;;12.40;68.30;;;;;;4988943;28;20056;-81
2021/03/29 05:56:04;;;;;;;3.95;1.70;;;12.40;68.30;;;;;;4972336;28;20034;-84
2021/03/29 06:01:17;;;;;;;3.28;1.95;;;12.40;68.30;;;;;;4974706;28;20034;-79
2021/03/29 06:03:43;;;;;;;2.90;2.00;;;12.40;68.30;;;;;;4972074;28;20440;-84
2021/03/29 06:06:12;;;;;;;3.80;1.83;;;12.40;68.30;;;;;;4973056;28;20057;-81
2021/03/29 06:08:45;;;;;;;5.47;2.47;;;12.40;68.40;;;;;;5005773;28;20133;-82
2021/03/29 06:11:24;;;;;;;7.63;2.10;;;12.40;69.10;;;;;;4989387;28;20511;-83
2021/03/29 06:14:16;;;;;;;4.57;2.33;;;12.40;68.90;;;;;;4991391;28;20037;-84
2021/03/29 06:17:02;;;;;;;3.67;2.17;;;12.50;69.40;;;;;;4987177;28;20038;-87
2021/03/29 06:19:54;;;;;;;7.47;2.80;;;12.60;69.80;;;;;;4995430;28;20061;-85
2021/03/29 06:22:21;;;;;;;7.13;2.67;;;12.60;69.80;;;;;;5006278;28;20116;-88
2021/03/29 06:25:02;;;;;;;6.65;2.63;;;12.70;69.90;;;;;;4990645;28;20038;-85
2021/03/29 06:27:55;;;;;;;5.50;2.50;;;12.70;70.20;;;;;;4971790;28;20054;-83
2021/03/29 06:30:27;;;;;;;6.75;2.47;;;12.80;70.60;;;;;;4963649;28;20054;-89
2021/03/29 06:33:04;;;;;;;6.05;2.80;;;12.90;70.60;;;;;;4963154;28;20038;-85
2021/03/29 06:35:40;;;;;;;7.55;2.30;;;13.00;71.10;;;;;;4973986;28;20129;-85
2021/03/29 06:38:17;;;;;;;6.10;2.40;;;13.00;71.10;;;;;;4979552;28;20034;-85
2021/03/29 06:40:45;;;;;;;6.45;2.17;;;13.10;71.30;;;;;;4979850;28;20072;-83
2021/03/29 06:43:30;;;;;;;4.93;2.67;;;13.20;71.60;;;;;;4995291;28;20137;-88
2021/03/29 06:45:58;;;;;;;5.20;2.03;;;13.20;71.70;;;;;;4995301;28;20048;-84
2021/03/29 06:48:31;;;;;;;5.50;2.63;;;13.30;71.80;;;;;;4993443;28;20058;-84
2021/03/29 06:51:08;;;;;;;6.63;2.50;;;13.40;72.20;;;;;;4993780;28;20070;-85
2021/03/29 06:53:35;;;;;;;6.72;3.45;;;13.50;72.40;;;;;;4976548;28;20042;-87
2021/03/29 06:56:21;;;;;;;8.15;2.88;;;13.50;72.20;;;;;;4977366;28;20499;-85
2021/03/29 06:58:48;;;;;;;7.57;2.80;;;13.60;72.60;;;;;;4993266;28;20129;-85
2021/03/29 07:01:25;;;;;;;5.38;2.08;;;13.70;72.60;;;;;;4978561;28;20084;-89
2021/03/29 07:03:53;;;;;;;6.72;2.65;;;13.80;73.50;;;;;;4994642;28;20049;-88
2021/03/29 07:06:30;;;;;;;6.82;2.50;;;13.90;73.00;;;;;;4978283;28;20108;-92
2021/03/29 07:09:04;;;;;;;7.75;2.25;;;13.90;73.10;;;;;;4994193;28;20461;-89
2021/03/29 07:11:31;;;;;;;6.45;2.55;;;14.00;73.20;;;;;;4977588;28;20481;-89
2021/03/29 07:13:58;;;;;;;5.03;2.05;;;14.10;73.30;;;;;;4977485;28;20571;-91
2021/03/29 07:16:26;;;;;;;6.28;2.90;;;14.10;73.30;;;;;;4977498;28;20052;-88
2021/03/29 07:19:01;;;;;;;7.70;1.90;;;14.20;73.40;;;;;;4993945;28;20046;-84
2021/03/29 07:21:28;;;;;;;5.22;2.50;;;14.30;73.60;;;;;;4994934;28;20306;-85
2021/03/29 07:24:00;;;;;;;7.93;2.63;;;14.40;73.60;;;;;;4993233;28;20056;-84
2021/03/29 07:26:28;;;;;;;10.15;2.50;;;14.40;74.10;;;;;;4973065;28;20046;-84
2021/03/29 07:28:56;;;;;;;3.25;1.65;;;14.50;73.70;;;;;;4990305;28;20090;-88
2021/03/29 07:31:42;;;;;;;6.53;2.28;;;14.60;73.90;;;;;;4993036;28;20101;-88
2021/03/29 07:34:11;;;;;;;3.72;1.98;;;14.70;74.10;;;;;;4992674;28;20072;-85
2021/03/29 07:36:42;;;;;;;3.35;2.10;;;14.80;74.00;;;;;;4974847;28;20045;-83
2021/03/29 07:39:10;;;;;;;3.90;2.17;;;14.80;73.80;;;;;;4992658;28;20050;-82
2021/03/29 07:41:36;;;;;;;4.38;1.92;;;14.90;73.90;;;;;;4992346;28;20441;-83
2021/03/29 07:44:10;;;;;;;3.58;1.70;;;15.00;73.90;;;;;;4990431;28;20331;-85
2021/03/29 07:46:37;;;;;;;9.18;2.28;;;15.10;74.00;;;;;;4991851;28;20589;-84
2021/03/29 07:49:03;;;;;;;2.75;1.85;;;15.20;74.00;;;;;;4991079;28;20437;-84
2021/03/29 07:51:30;;;;;;;7.20;2.00;;;15.30;74.10;;;;;;5009140;28;20096;-84
2021/03/29 07:54:00;;;;;;;4.30;2.00;;;15.40;74.10;;;;;;4991404;28;20132;-84
2021/03/29 07:56:37;;;;;;;3.65;1.80;;;15.50;74.10;;;;;;5008365;28;20095;-83
2021/03/29 07:59:04;;;;;;;3.00;1.73;;;15.60;73.90;;;;;;4975250;28;20117;-81
2021/03/29 08:02:02;;;;;;;4.05;2.15;;;15.70;73.80;;;;;;4990396;28;20368;-85
2021/03/29 08:05:00;;;;;;;4.00;1.88;;;15.80;73.70;;;;;;4971056;28;20102;-86
2021/03/29 08:07:40;;;;;;;6.80;2.20;;;15.90;73.60;;;;;;4988925;28;20206;-85
2021/03/29 08:10:17;;;;;;;5.88;2.40;;;16.00;73.50;;;;;;4987514;28;20451;-85
2021/03/29 08:12:58;;;;;;;4.07;2.00;;;16.00;73.40;;;;;;4961536;28;20068;-87
2021/03/29 08:15:44;;;;;;;5.47;2.03;;;16.10;73.30;;;;;;4994750;28;20584;-85
2021/03/29 08:18:10;;;;;;;3.78;1.80;;;16.20;73.30;;;;;;4977219;28;20445;-85
2021/03/29 08:20:46;;;;;;;3.53;1.90;;;16.20;73.10;;;;;;4990636;28;20047;-87
2021/03/29 08:23:39;;;;;;;4.47;2.20;;;16.30;73.10;;;;;;5007323;28;20236;-82
2021/03/29 08:26:13;;;;;;;6.97;1.80;;;16.40;73.00;;;;;;5023262;28;20562;-83
2021/03/29 08:29:07;;;;;;;4.95;1.83;;;16.40;72.80;;;;;;5004060;28;20068;-86
2021/03/29 08:32:03;;;;;;;5.10;2.30;;;16.50;72.80;;;;;;5023425;28;20567;-83
2021/03/29 08:34:31;;;;;;;5.22;2.13;;;16.60;72.80;;;;;;4992240;28;20053;-87
2021/03/29 08:37:03;;;;;;;4.28;1.88;;;16.60;72.70;;;;;;4990767;28;20042;-87
2021/03/29 08:39:34;;;;;;;5.25;1.88;;;16.70;72.80;;;;;;4991931;28;20053;-88
2021/03/29 08:42:02;;;;;;;4.68;1.63;;;16.80;72.90;;;;;;4990572;28;20037;-83
2021/03/29 08:44:29;;;;;;;4.10;1.75;;;16.80;72.80;;;;;;4971138;28;20038;-88
2021/03/29 08:46:58;;;;;;;5.28;1.98;;;16.90;72.90;;;;;;5006902;28;20502;-83
2021/03/29 08:49:26;;;;;;;4.68;2.03;;;17.00;72.90;;;;;;4975055;28;20049;-83
2021/03/29 08:51:55;;;;;;;4.07;1.63;;;17.10;72.90;;;;;;5013472;28;20050;-87
2021/03/29 08:54:23;;;;;;;7.55;2.50;;;17.20;72.80;;;;;;4980422;28;20037;-86
2021/03/29 08:57:07;;;;;;;3.15;1.70;;;17.20;72.50;;;;;;4977341;28;20045;-86
2021/03/29 08:59:34;;;;;;;4.30;1.92;;;17.30;72.50;;;;;;4971984;28;20042;-87
2021/03/29 09:02:17;;;;;;;3.17;1.65;;;17.40;72.50;;;;;;5007820;28;20424;-86
2021/03/29 09:04:55;;;;;;;1.70;1.60;;;17.50;72.50;;;;;;4995467;28;20034;-88
2021/03/29 09:07:27;;;;;;;2.63;1.70;;;17.50;72.30;;;;;;4974282;28;20065;-82
2021/03/29 09:09:54;;;;;;;3.25;1.88;;;17.50;72.20;;;;;;4974267;28;20045;-87
2021/03/29 09:12:22;;;;;;;3.55;1.80;;;17.60;72.30;;;;;;4974475;28;20060;-82
2021/03/29 09:14:48;;;;;;;3.60;2.10;;;17.70;72.30;;;;;;4992137;28;20348;-87
2021/03/29 09:17:27;;;;;;;2.67;1.80;;;17.80;72.30;;;;;;5009896;28;20046;-87
2021/03/29 09:19:53;;;;;;;3.30;1.48;;;17.90;72.20;;;;;;4993902;28;20033;-85
2021/03/29 09:22:35;;;;;;;3.22;1.80;;;17.90;72.00;;;;;;4994558;28;20121;-90
2021/03/29 09:25:03;;;;;;;3.95;1.60;;;18.10;72.10;;;;;;5010899;28;20052;-87
2021/03/29 09:27:43;;;;;;;3.00;1.73;;;18.10;71.90;;;;;;4990788;28;20049;-84
2021/03/29 09:30:12;;;;;;;4.95;1.70;;;18.20;71.90;;;;;;4971275;28;20400;-86
2021/03/29 09:32:40;;;;;;;3.22;1.98;;;18.30;72.00;;;;;;4959253;28;20410;-85
2021/03/29 09:35:07;;;;;;;3.05;1.63;;;18.40;72.00;;;;;;4990072;28;20140;-84
2021/03/29 09:37:33;;;;;;;2.83;1.40;;;18.50;72.00;;;;;;4973519;28;20069;-86
2021/03/29 09:40:04;;;;;;;2.72;1.63;;;18.70;72.10;;;;;;4972790;28;20046;-84
2021/03/29 09:42:47;;;;;;;2.55;1.30;;;18.80;71.90;;;;;;4973868;28;20458;-83
2021/03/29 09:45:25;;;;;;;3.90;1.38;;;19.00;71.80;;;;;;4974369;28;20073;-88
2021/03/29 09:48:06;;;;;;;4.07;1.65;;;19.10;71.70;;;;;;4974608;28;20082;-86
2021/03/29 09:50:41;;;;;;;3.03;1.42;;;19.20;71.50;;;;;;4991039;28;20481;-85
2021/03/29 09:53:08;;;;;;;3.50;1.48;;;19.30;71.50;;;;;;4975041;28;20555;-91
2021/03/29 09:56:04;;;;;;;3.33;1.33;;;19.30;71.30;;;;;;4977936;28;20038;-88
2021/03/29 09:58:36;;;;;;;3.40;1.60;;;19.30;71.10;;;;;;4973331;28;20474;-82
2021/03/29 10:01:15;;;;;;;4.18;1.60;;;19.30;71.10;;;;;;4982255;28;20149;-88
2021/03/29 10:03:57;;;;;;;2.13;1.60;;;19.20;70.80;;;;;;4987231;28;20297;-83
2021/03/29 10:06:24;;;;;;;4.05;1.35;;;19.20;70.80;;;;;;4990377;28;20381;-84
2021/03/29 10:09:06;;;;;;;3.55;1.63;;;19.20;70.90;;;;;;4976656;28;20515;-84
2021/03/29 10:11:46;;;;;;;2.75;1.70;;;19.10;70.60;;;;;;4992511;28;20064;-81
2021/03/29 10:14:16;;;;;;;2.08;1.48;;;19.20;70.80;;;;;;5009261;28;20038;-82
2021/03/29 10:16:50;;;;;;;4.40;1.90;;;19.20;70.80;;;;;;4975798;28;20492;-84
2021/03/29 10:19:21;;;;;;;3.60;1.70;;;19.20;70.60;;;;;;4993163;28;20065;-83
2021/03/29 10:22:16;;;;;;;4.50;1.83;;;19.20;70.50;;;;;;4995489;28;20076;-84
2021/03/29 10:25:07;;;;;;;4.53;1.70;;;19.30;70.50;;;;;;4992669;28;20114;-82
2021/03/29 10:27:45;;;;;;;6.07;1.88;;;19.30;70.40;;;;;;4975390;28;20046;-82
2021/03/29 10:30:33;;;;;;;3.05;1.90;;;19.40;70.20;;;;;;4977810;28;20026;-82
2021/03/29 10:33:05;;;;;;;4.28;2.20;;;19.50;70.20;;;;;;4993207;28;20038;-85
2021/03/29 10:35:32;;;;;;;4.68;2.67;;;19.60;70.30;;;;;;4993797;28;20132;-83
2021/03/29 10:38:02;;;;;;;2.67;2.03;;;19.70;70.30;;;;;;4959865;28;20868;-82
2021/03/29 10:40:28;;;;;;;6.72;2.83;;;19.90;70.40;;;;;;5009400;28;20042;-80
2021/03/29 10:42:54;;;;;;;4.60;2.35;;;20.00;70.40;;;;;;4973347;28;20124;-82
2021/03/29 10:45:21;;;;;;;5.45;2.15;;;20.10;70.30;;;;;;4972965;28;20038;-85
2021/03/29 10:47:47;;;;;;;4.65;1.92;;;20.20;70.30;;;;;;4974334;28;20042;-83
2021/03/29 10:50:17;;;;;;;2.38;1.60;;;20.40;70.30;;;;;;5010649;28;20073;-83
2021/03/29 10:52:43;;;;;;;3.28;1.55;;;20.50;70.20;;;;;;4991752;28;20358;-85
2021/03/29 10:55:09;;;;;;;3.08;1.83;;;20.50;70.10;;;;;;4976569;28;20543;-83
2021/03/29 10:57:36;;;;;;;4.05;1.75;;;20.50;69.90;;;;;;4992694;28;20232;-81
2021/03/29 11:00:04;;;;;;;2.13;1.40;;;20.60;70.00;;;;;;5010153;28;20406;-88
2021/03/29 11:02:30;;;;;;;3.22;1.77;;;20.50;69.70;;;;;;4992729;28;20037;-84
2021/03/29 11:04:56;;;;;;;3.30;1.83;;;20.50;69.70;;;;;;4976587;28;20056;-89
2021/03/29 11:07:22;;;;;;;2.40;1.40;;;20.50;70.30;;;;;;4984758;28;20069;-85
2021/03/29 11:09:48;;;;;;;3.78;1.67;;;20.50;69.80;;;;;;4992871;28;20121;-87
2021/03/29 11:12:14;;;;;;;2.45;1.65;;;20.50;69.80;;;;;;4991674;28;20121;-85
2021/03/29 11:14:40;;;;;;;1.67;1.25;;;20.50;69.70;;;;;;4991528;28;20041;-86
2021/03/29 11:17:08;;;;;;;2.33;1.33;;;20.50;69.60;;;;;;4975586;28;20042;-89
2021/03/29 11:19:34;;;;;;;1.60;1.20;;;20.60;69.70;;;;;;4976803;28;20049;-84
2021/03/29 11:22:00;;;;;;;3.03;1.60;;;20.60;69.60;;;;;;5013596;28;20045;-84
2021/03/29 11:24:27;;;;;;;1.63;1.30;;;20.60;69.50;;;;;;4991692;28;20237;-85
2021/03/29 11:26:53;;;;;;;3.20;1.48;;;20.60;69.50;;;;;;5008744;28;20060;-84
2021/03/29 11:29:19;;;;;;;4.03;1.70;;;20.80;69.80;;;;;;4991684;28;20041;-87
2021/03/29 11:31:45;;;;;;;2.42;1.35;;;20.90;69.80;;;;;;4993294;28;20089;-85
2021/03/29 11:34:12;;;;;;;5.13;2.88;;;21.00;69.80;;;;;;4992222;28;20112;-88
2021/03/29 11:36:40;;;;;;;8.57;3.17;;;21.20;69.90;;;;;;4991158;28;20347;-80
2021/03/29 11:39:08;;;;;;;6.43;5.65;;;21.20;69.60;;;;;;4990304;28;20038;-80
2021/03/29 11:41:35;;;;;;;7.32;6.70;;;21.40;70.00;;;;;;5008801;28;20042;-81
2021/03/29 11:44:01;;;;;;;7.57;6.85;;;21.50;70.10;;;;;;4990916;28;20406;-82
2021/03/29 11:46:27;;;;;;;8.10;3.13;;;21.60;70.20;;;;;;4990769;28;20133;-83
2021/03/29 11:48:53;;;;;;;4.30;2.65;;;21.60;69.20;;;;;;4984358;28;20210;-82
2021/03/29 11:51:19;;;;;;;4.13;2.53;;;21.70;68.40;;;;;;5011325;28;20053;-83
2021/03/29 11:53:45;;;;;;;3.75;2.03;;;21.60;67.90;;;;;;4977414;28;20076;-85
2021/03/29 11:56:11;;;;;;;5.57;2.92;;;21.60;67.90;;;;;;4962919;28;20042;-83
2021/03/29 11:58:37;;;;;;;7.40;2.50;;;21.60;67.90;;;;;;4992189;28;20121;-84
2021/03/29 12:01:30;;;;;;;6.03;2.97;;;21.70;67.90;;;;;;4992509;28;20038;-83
2021/03/29 12:04:03;;;;;;;7.25;2.88;;;21.90;68.10;;;;;;5011195;28;20184;-89
2021/03/29 12:06:36;;;;;;;5.38;2.55;;;22.10;68.20;;;;;;4976721;28;20161;-85
2021/03/29 12:09:20;;;;;;;3.97;2.50;;;22.20;68.10;;;;;;5012400;28;20042;-84
2021/03/29 12:12:04;;;;;;;4.03;2.72;;;22.30;68.10;;;;;;4993636;28;20282;-86
2021/03/29 12:14:39;;;;;;;4.75;2.65;;;22.40;68.20;;;;;;4979742;28;20038;-85
2021/03/29 12:17:11;;;;;;;4.88;2.63;;;22.40;68.00;;;;;;4993839;28;20050;-86
2021/03/29 12:19:39;;;;;;;6.20;2.63;;;22.40;67.80;;;;;;4975957;28;20132;-91
2021/03/29 12:22:31;;;;;;;2.80;1.95;;;22.50;68.00;;;;;;4974511;28;20519;-93
2021/03/29 12:24:59;;;;;;;3.38;1.98;;;22.60;68.00;;;;;;4975300;28;20131;-88
2021/03/29 12:27:26;;;;;;;4.18;1.95;;;22.60;67.90;;;;;;4992287;28;20056;-88
2021/03/29 12:29:54;;;;;;;6.55;2.05;;;22.70;68.00;;;;;;4974085;28;20129;-89
2021/03/29 12:32:21;;;;;;;6.18;2.47;;;22.80;68.00;;;;;;4975725;28;20559;-86
2021/03/29 12:34:51;;;;;;;4.50;2.03;;;22.90;68.10;;;;;;4992313;28;20030;-85
2021/03/29 12:37:19;;;;;;;3.03;1.98;;;23.00;68.00;;;;;;4991556;28;20042;-90
2021/03/29 12:39:48;;;;;;;3.15;1.90;;;23.10;68.00;;;;;;4975713;28;20037;-89
2021/03/29 12:42:17;;;;;;;4.70;2.08;;;23.20;68.00;;;;;;4975664;28;20464;-86
2021/03/29 12:44:44;;;;;;;3.17;1.52;;;23.30;68.00;;;;;;4976356;28;20143;-87
2021/03/29 12:47:11;;;;;;;2.70;1.83;;;23.30;67.70;;;;;;4975440;28;20050;-87
2021/03/29 12:49:38;;;;;;;2.95;1.85;;;23.40;67.70;;;;;;4975741;28;20444;-87
2021/03/29 12:52:04;;;;;;;5.05;1.83;;;23.50;67.70;;;;;;4973719;28;20045;-83
2021/03/29 12:54:33;;;;;;;4.30;1.90;;;23.50;67.50;;;;;;4989703;28;20331;-85
2021/03/29 12:57:00;;;;;;;6.30;1.90;;;23.50;67.40;;;;;;4974624;28;20041;-83
2021/03/29 12:59:27;;;;;;;3.28;2.13;;;23.60;67.50;;;;;;5006957;28;20433;-83
2021/03/29 13:01:55;;;;;;;4.10;2.55;;;23.60;67.40;;;;;;5010570;28;20046;-85
2021/03/29 13:04:44;;;;;;;4.32;2.45;;;23.70;67.30;;;;;;5003852;28;20038;-85
2021/03/29 13:09:54;;;;;;;7.55;2.33;;;23.70;65.60;;;;;;5006351;28;20373;-86
2021/03/29 13:12:22;;;;;;;6.20;2.17;;;23.50;64.80;;;;;;4984061;28;20042;-85